createdAt,value
2022-08-05T00:00:00.331Z,70212.81
2022-08-05T00:02:28.677Z,70227.16
2022-08-05T00:04:57.040Z,70201.63
2022-08-05T00:07:58.917Z,70204.34
2022-08-05T00:10:12.442Z,70186.94
2022-08-05T00:12:56.060Z,70220.97
2022-08-05T00:15:55.779Z,70196.59
2022-08-05T00:18:21.444Z,70209.19
2022-08-05T00:20:50.722Z,70185.44
2022-08-05T00:23:44.482Z,70195.88
2022-08-05T00:26:07.294Z,70204.22
2022-08-05T00:28:35.529Z,70190.84
2022-08-05T00:31:04.780Z,70231.84
2022-08-05T00:34:54.675Z,70190.09
2022-08-05T00:37:10.662Z,70224.31
2022-08-05T00:39:13.679Z,70216.56
2022-08-05T00:41:55.114Z,70171.53
2022-08-05T00:44:30.358Z,70186.63
2022-08-05T00:47:02.042Z,70141.00
2022-08-05T00:49:44.734Z,70151.06
2022-08-05T00:52:28.417Z,70198.47
2022-08-05T00:54:56.780Z,70186.13
2022-08-05T00:57:25.446Z,70145.34
2022-08-05T01:00:10.994Z,70192.91
2022-08-05T01:02:38.733Z,70177.44
2022-08-05T01:05:10.152Z,70171.66
2022-08-05T01:07:37.780Z,70165.25
2022-08-05T01:10:30.734Z,70198.75
2022-08-05T01:13:13.084Z,70173.22
2022-08-05T01:15:56.595Z,70169.78
2022-08-05T01:18:29.838Z,70141.56
2022-08-05T01:21:37.761Z,70152.41
2022-08-05T01:24:22.096Z,70178.72
2022-08-05T01:27:24.998Z,70121.13
2022-08-05T01:29:58.221Z,70144.34
2022-08-05T01:32:29.786Z,70154.56
2022-08-05T01:35:03.385Z,70141.63
2022-08-05T01:37:44.810Z,70134.69
2022-08-05T01:40:18.034Z,70171.22
2022-08-05T01:42:47.027Z,70151.91
2022-08-05T01:45:16.582Z,70143.63
2022-08-05T01:47:46.474Z,70143.66
2022-08-05T01:50:29.786Z,70117.78
2022-08-05T01:53:04.434Z,70135.78
2022-08-05T01:55:36.083Z,70121.50
2022-08-05T01:58:13.190Z,70084.28
2022-08-05T02:00:49.024Z,70082.00
2022-08-05T02:03:34.129Z,70107.09
2022-08-05T02:06:37.488Z,70090.34
2022-08-05T02:08:58.137Z,70153.44
2022-08-05T02:11:32.826Z,70084.19
2022-08-05T02:14:08.379Z,70049.84
2022-08-05T02:16:46.519Z,70114.66
2022-08-05T02:19:25.223Z,70078.19
2022-08-05T02:22:25.957Z,70077.44
2022-08-05T02:25:03.337Z,70086.88
2022-08-05T02:27:58.565Z,70062.22
2022-08-05T02:30:26.831Z,70055.47
2022-08-05T02:33:00.152Z,70075.13
2022-08-05T02:35:37.390Z,70054.31
2022-08-05T02:38:09.505Z,70047.59
2022-08-05T02:40:41.029Z,70009.00
2022-08-05T02:43:11.266Z,70014.63
2022-08-05T02:45:51.423Z,70032.75
2022-08-05T02:48:28.844Z,70040.47
2022-08-05T02:51:00.380Z,70086.97
2022-08-05T02:53:38.961Z,70016.22
2022-08-05T02:56:09.378Z,69997.31
2022-08-05T02:58:43.514Z,70026.25
2022-08-05T03:01:17.425Z,70009.69
2022-08-05T03:04:02.782Z,70000.25
2022-08-05T03:06:54.362Z,70010.47
2022-08-05T03:09:36.137Z,69994.06
2022-08-05T03:12:04.979Z,69976.72
2022-08-05T03:14:32.532Z,70014.50
2022-08-05T03:17:00.628Z,70006.97
2022-08-05T03:19:34.164Z,69989.63
2022-08-05T03:22:04.822Z,70010.47
2022-08-05T03:24:47.167Z,70011.41
2022-08-05T03:27:19.109Z,70031.66
2022-08-05T03:30:07.394Z,70024.72
2022-08-05T03:32:34.697Z,70017.22
2022-08-05T03:35:04.495Z,70021.66
2022-08-05T03:37:46.152Z,69937.06
2022-08-05T03:40:15.486Z,69995.81
2022-08-05T03:42:59.555Z,70037.06
2022-08-05T03:45:57.484Z,69972.31
2022-08-05T03:48:26.894Z,69990.06
2022-08-05T03:52:36.629Z,69989.66
2022-08-05T03:55:51.988Z,70032.25
2022-08-05T03:57:41.865Z,70045.53
2022-08-05T04:00:16.291Z,69931.84
2022-08-05T04:02:58.718Z,69943.22
2022-08-05T04:05:35.309Z,69929.97
2022-08-05T04:08:14.494Z,70025.16
2022-08-05T04:10:53.763Z,69983.13
2022-08-05T04:13:22.813Z,69959.03
2022-08-05T04:16:04.284Z,69942.28
2022-08-05T04:18:34.231Z,69990.81
2022-08-05T04:21:03.969Z,69921.88
2022-08-05T04:24:06.045Z,69930.34
2022-08-05T04:26:20.393Z,69989.69
2022-08-05T04:28:51.823Z,69926.31
2022-08-05T04:31:20.375Z,69913.00
2022-08-05T04:34:18.181Z,69942.66
2022-08-05T04:36:44.651Z,69901.22
2022-08-05T04:39:13.971Z,69937.63
2022-08-05T04:41:41.418Z,69949.78
2022-08-05T04:44:09.909Z,69930.50
2022-08-05T04:46:38.635Z,69942.22
2022-08-05T04:49:12.411Z,69951.66
2022-08-05T04:51:44.024Z,69925.66
2022-08-05T04:54:12.208Z,69929.38
2022-08-05T04:56:40.113Z,69908.91
2022-08-05T04:59:22.009Z,69885.75
2022-08-05T05:02:35.538Z,69900.25
2022-08-05T05:04:47.768Z,69936.69
2022-08-05T05:07:18.219Z,69910.13
2022-08-05T05:09:52.137Z,69897.00
2022-08-05T05:12:21.332Z,69917.75
2022-08-05T05:14:50.912Z,69948.81
2022-08-05T05:17:23.879Z,69935.50
2022-08-05T05:19:55.102Z,69949.53
2022-08-05T05:22:26.430Z,69946.03
2022-08-05T05:25:00.231Z,69944.63
2022-08-05T05:27:41.781Z,69966.97
2022-08-05T05:30:30.659Z,69979.88
2022-08-05T05:33:03.848Z,70000.81
2022-08-05T05:35:42.549Z,69971.63
2022-08-05T05:38:13.232Z,70008.75
2022-08-05T05:40:49.631Z,70026.16
2022-08-05T05:43:22.185Z,70008.53
2022-08-05T05:46:12.239Z,70058.06
2022-08-05T05:48:44.708Z,70041.38
2022-08-05T05:51:19.838Z,70091.50
2022-08-05T05:53:57.902Z,70092.25
2022-08-05T05:56:31.609Z,70116.97
2022-08-05T05:59:07.528Z,70112.84
2022-08-05T06:01:40.438Z,70108.47
2022-08-05T06:04:24.707Z,70151.28
2022-08-05T06:06:52.598Z,70147.34
2022-08-05T06:09:24.777Z,70136.09
2022-08-05T06:12:00.035Z,70127.63
2022-08-05T06:14:30.817Z,70140.22
2022-08-05T06:16:58.693Z,70145.44
2022-08-05T06:19:34.640Z,70114.91
2022-08-05T06:22:07.847Z,70103.09
2022-08-05T06:24:41.596Z,70138.31
2022-08-05T06:27:20.004Z,70135.38
2022-08-05T06:30:17.940Z,70098.66
2022-08-05T06:32:48.408Z,70133.50
2022-08-05T06:36:03.886Z,70111.09
2022-08-05T06:38:10.089Z,70152.75
2022-08-05T06:40:44.355Z,70134.47
2022-08-05T06:43:58.137Z,70179.22
2022-08-05T06:46:07.277Z,70143.56
2022-08-05T06:48:55.318Z,70124.63
2022-08-05T06:51:29.980Z,70126.72
2022-08-05T06:54:03.269Z,70174.72
2022-08-05T06:56:34.189Z,70178.72
2022-08-05T06:59:09.554Z,70150.25
2022-08-05T07:01:40.680Z,70194.09
2022-08-05T07:04:08.842Z,70166.94
2022-08-05T07:06:36.032Z,70121.84
2022-08-05T07:09:04.722Z,70132.31
2022-08-05T07:11:37.104Z,70113.88
2022-08-05T07:14:30.373Z,70078.50
2022-08-05T07:18:08.750Z,70043.56
2022-08-05T07:20:34.124Z,70030.63
2022-08-05T07:22:38.180Z,70011.63
2022-08-05T07:25:23.515Z,70049.78
2022-08-05T07:28:00.083Z,70024.88
2022-08-05T07:30:39.160Z,69960.75
2022-08-05T07:33:15.585Z,69993.00
2022-08-05T07:36:03.870Z,69934.63
2022-08-05T07:38:34.237Z,69900.22
2022-08-05T07:42:07.128Z,69934.00
2022-08-05T07:43:57.902Z,69932.50
2022-08-05T07:46:31.466Z,69940.63
2022-08-05T07:49:05.912Z,69888.06
2022-08-05T07:51:40.911Z,69917.47
2022-08-05T07:54:23.117Z,69915.31
2022-08-05T07:57:01.385Z,69912.81
2022-08-05T07:59:39.708Z,69914.78
2022-08-05T08:02:16.203Z,69882.72
2022-08-05T08:04:49.485Z,69917.69
2022-08-05T08:07:22.489Z,69952.91
2022-08-05T08:09:52.730Z,69918.72
2022-08-05T08:12:33.377Z,69980.91
2022-08-05T08:15:09.688Z,69905.63
2022-08-05T08:17:46.116Z,69931.63
2022-08-05T08:20:43.691Z,69842.13
2022-08-05T08:23:07.519Z,69949.25
2022-08-05T08:25:59.245Z,69935.06
2022-08-05T08:28:36.586Z,69928.84
2022-08-05T08:31:08.196Z,69937.88
2022-08-05T08:33:38.063Z,69899.66
2022-08-05T08:38:57.376Z,69895.75
2022-08-05T08:41:52.393Z,69922.53
2022-08-05T08:45:21.152Z,69932.50
2022-08-05T08:47:47.061Z,69928.53
2022-08-05T08:50:22.655Z,69886.63
2022-08-05T08:52:51.672Z,69876.19
2022-08-05T08:56:02.163Z,69896.50
2022-08-05T08:58:10.643Z,69909.63
2022-08-05T09:00:42.384Z,69936.28
2022-08-05T09:03:16.320Z,69873.72
2022-08-05T09:06:08.148Z,69894.34
2022-08-05T09:08:40.233Z,69808.88
2022-08-05T09:11:12.154Z,69936.56
2022-08-05T09:14:09.182Z,69920.19
2022-08-05T09:16:30.887Z,69874.81
2022-08-05T09:18:59.440Z,69891.44
2022-08-05T09:22:17.976Z,69816.16
2022-08-05T09:24:16.144Z,69831.88
2022-08-05T09:26:50.361Z,69809.84
2022-08-05T09:29:19.850Z,69764.94
2022-08-05T09:32:41.581Z,69723.88
2022-08-05T09:34:58.359Z,69691.00
2022-08-05T09:38:18.484Z,69726.84
2022-08-05T09:40:33.291Z,69670.03
2022-08-05T09:43:08.535Z,69744.66
2022-08-05T09:46:06.857Z,69893.03
2022-08-05T09:48:33.779Z,69792.84
2022-08-05T09:51:03.891Z,69804.03
2022-08-05T09:53:54.772Z,69757.06
2022-08-05T09:56:33.378Z,69646.50
2022-08-05T09:59:04.335Z,69819.44
2022-08-05T10:01:33.841Z,69813.72
2022-08-05T10:04:10.581Z,69683.66
2022-08-05T10:06:40.612Z,69697.16
2022-08-05T10:09:27.303Z,69818.31
2022-08-05T10:12:18.907Z,69760.09
2022-08-05T10:15:20.192Z,69742.22
2022-08-05T10:18:12.053Z,69690.81
2022-08-05T10:20:51.222Z,69592.38
2022-08-05T10:23:59.824Z,69664.31
2022-08-05T10:26:32.692Z,69604.69
2022-08-05T10:29:02.591Z,69575.53
2022-08-05T10:33:02.199Z,69579.41
2022-08-05T10:34:17.686Z,69638.25
2022-08-05T10:36:53.590Z,69527.88
2022-08-05T10:40:03.585Z,69523.78
2022-08-05T10:42:33.813Z,69615.34
2022-08-05T10:45:21.206Z,69631.34
2022-08-05T10:48:27.651Z,69642.16
2022-08-05T10:51:05.816Z,69597.13
2022-08-05T10:53:55.376Z,69604.00
2022-08-05T10:56:26.274Z,69548.41
2022-08-05T10:58:53.746Z,69485.03
2022-08-05T11:01:55.275Z,69530.09
2022-08-05T11:04:26.362Z,69637.94
2022-08-05T11:07:04.515Z,69531.53
2022-08-05T11:10:09.629Z,69644.69
2022-08-05T11:12:38.319Z,69401.31
2022-08-05T11:15:59.513Z,69497.13
2022-08-05T11:18:30.026Z,69769.13
2022-08-05T11:21:02.007Z,69780.00
2022-08-05T11:24:05.570Z,69616.22
2022-08-05T11:26:28.815Z,69573.34
2022-08-05T11:29:13.015Z,69608.16
2022-08-05T11:31:57.909Z,69817.31
2022-08-05T11:34:51.102Z,69650.78
2022-08-05T11:38:26.768Z,69691.94
2022-08-05T11:41:01.333Z,69487.06
2022-08-05T11:44:06.291Z,69440.59
2022-08-05T11:46:58.076Z,69314.75
2022-08-05T11:49:38.263Z,69287.44
2022-08-05T11:52:11.593Z,69328.03
2022-08-05T11:54:41.589Z,69323.88
2022-08-05T11:57:25.839Z,69531.47
2022-08-05T11:59:55.203Z,69799.75
2022-08-05T12:02:33.110Z,69666.56
2022-08-05T12:05:07.979Z,69712.94
2022-08-05T12:08:03.609Z,70117.16
2022-08-05T12:10:45.783Z,70062.22
2022-08-05T12:13:28.330Z,70091.91
2022-08-05T12:16:17.865Z,70084.78
2022-08-05T12:18:48.716Z,70011.38
2022-08-05T12:21:30.327Z,70176.34
2022-08-05T12:24:09.690Z,70124.69
2022-08-05T12:26:39.550Z,70135.56
2022-08-05T12:29:17.925Z,70102.06
2022-08-05T12:31:54.351Z,70089.09
2022-08-05T12:34:37.142Z,70142.59
2022-08-05T12:37:21.543Z,70134.28
2022-08-05T12:39:52.007Z,70119.19
2022-08-05T12:42:25.360Z,70162.16
2022-08-05T12:45:11.291Z,70171.34
2022-08-05T12:47:43.568Z,70172.56
2022-08-05T12:50:26.611Z,70194.66
2022-08-05T12:52:59.949Z,70203.91
2022-08-05T12:55:33.060Z,70097.31
2022-08-05T12:58:50.750Z,70141.22
2022-08-05T13:02:03.859Z,70134.66
2022-08-05T13:03:42.119Z,70134.28
2022-08-05T13:06:15.936Z,70166.41
2022-08-05T13:08:50.776Z,70140.34
2022-08-05T13:11:25.616Z,70185.47
2022-08-05T13:14:19.896Z,70200.75
2022-08-05T13:16:58.727Z,70164.53
2022-08-05T13:19:51.808Z,70169.50
2022-08-05T13:22:29.554Z,70119.53
2022-08-05T13:25:00.580Z,70191.78
2022-08-05T13:27:38.204Z,70184.53
2022-08-05T13:30:33.619Z,70190.38
2022-08-05T13:32:56.446Z,70211.38
2022-08-05T13:35:43.191Z,70106.91
2022-08-05T13:38:20.261Z,70113.44
2022-08-05T13:41:00.210Z,70159.34
2022-08-05T13:43:45.235Z,70167.19
2022-08-05T13:46:16.313Z,70205.44
2022-08-05T13:49:00.893Z,70207.28
2022-08-05T13:51:40.261Z,70171.09
2022-08-05T13:54:12.258Z,70204.72
2022-08-05T13:56:51.147Z,70236.72
2022-08-05T13:59:24.564Z,70214.81
2022-08-05T14:01:57.673Z,70222.13
2022-08-05T14:04:54.873Z,70205.19
2022-08-05T14:08:00.793Z,70196.66
2022-08-05T14:10:28.509Z,70195.81
2022-08-05T14:12:57.216Z,70215.31
2022-08-05T14:16:09.087Z,70245.63
2022-08-05T14:18:17.843Z,70247.50
2022-08-05T14:20:49.044Z,70214.47
2022-08-05T14:23:25.603Z,70241.13
2022-08-05T14:25:58.640Z,70207.03
2022-08-05T14:28:28.970Z,70155.56
2022-08-05T14:30:57.980Z,70231.25
2022-08-05T14:33:25.654Z,70260.97
2022-08-05T14:35:54.435Z,70279.31
2022-08-05T14:38:31.612Z,70269.50
2022-08-05T14:41:06.320Z,70243.88
2022-08-05T14:43:58.767Z,70247.16
2022-08-05T14:46:28.732Z,70236.81
2022-08-05T14:49:03.409Z,70278.00
2022-08-05T14:51:35.717Z,70207.78
2022-08-05T14:54:27.094Z,70172.09
2022-08-05T14:56:50.983Z,70280.09
2022-08-05T14:59:21.751Z,70238.84
2022-08-05T15:01:50.148Z,70185.47
2022-08-05T15:04:22.469Z,70165.78
2022-08-05T15:06:51.260Z,70170.63
2022-08-05T15:09:51.790Z,70196.97
2022-08-05T15:12:16.543Z,70161.13
2022-08-05T15:14:50.220Z,70175.44
2022-08-05T15:17:45.867Z,70198.97
2022-08-05T15:20:19.071Z,70194.84
2022-08-05T15:22:54.308Z,70229.66
2022-08-05T15:25:41.017Z,70142.97
2022-08-05T15:28:13.336Z,70200.47
2022-08-05T15:30:46.404Z,70215.00
2022-08-05T15:34:18.535Z,70201.50
2022-08-05T15:36:06.301Z,70196.13
2022-08-05T15:38:44.827Z,70238.97
2022-08-05T15:41:22.917Z,70226.53
2022-08-05T15:43:51.872Z,70240.19
2022-08-05T15:46:24.127Z,70229.72
2022-08-05T15:49:00.563Z,70200.94
2022-08-05T15:52:03.799Z,70297.13
2022-08-05T15:54:17.775Z,70255.81
2022-08-05T15:56:45.358Z,70220.47
2022-08-05T15:59:21.934Z,70267.06
2022-08-05T16:01:53.316Z,70280.19
2022-08-05T16:04:25.798Z,70300.63
2022-08-05T16:06:55.503Z,70244.94
2022-08-05T16:09:24.343Z,70214.16
2022-08-05T16:11:53.186Z,70189.38
2022-08-05T16:14:22.393Z,70207.25
2022-08-05T16:16:50.676Z,70224.56
2022-08-05T16:20:02.787Z,70250.41
2022-08-05T16:22:10.466Z,70256.94
2022-08-05T16:24:41.307Z,70230.47
2022-08-05T16:27:18.237Z,70263.31
2022-08-05T16:29:50.350Z,70210.03
2022-08-05T16:32:23.284Z,70262.44
2022-08-05T16:34:58.774Z,70281.16
2022-08-05T16:38:03.119Z,70233.66
2022-08-05T16:40:26.576Z,70292.16
2022-08-05T16:42:57.151Z,70251.13
2022-08-05T16:46:05.011Z,70250.00
2022-08-05T16:48:12.019Z,70269.28
2022-08-05T16:50:54.446Z,70281.94
2022-08-05T16:54:02.847Z,70271.03
2022-08-05T16:56:10.266Z,70229.47
2022-08-05T16:58:41.073Z,70256.22
2022-08-05T17:01:09.479Z,70293.31
2022-08-05T17:03:38.970Z,70259.22
2022-08-05T17:06:06.792Z,70222.88
2022-08-05T17:08:52.324Z,70238.53
2022-08-05T17:11:25.676Z,70224.03
2022-08-05T17:14:00.379Z,70244.09
2022-08-05T17:16:36.594Z,70245.69
2022-08-05T17:19:07.355Z,70229.16
2022-08-05T17:21:39.364Z,70172.56
2022-08-05T17:24:19.553Z,70205.16
2022-08-05T17:26:57.712Z,70211.31
2022-08-05T17:29:33.164Z,70207.53
2022-08-05T17:32:01.622Z,70193.31
2022-08-05T17:34:30.038Z,70170.75
2022-08-05T17:37:00.503Z,70200.75
2022-08-05T17:39:34.309Z,70239.94
2022-08-05T17:42:18.316Z,70204.75
2022-08-05T17:44:50.472Z,70236.19
2022-08-05T17:47:22.047Z,70249.06
2022-08-05T17:49:52.096Z,70260.72
2022-08-05T17:52:31.970Z,70250.66
2022-08-05T17:54:59.735Z,70229.22
2022-08-05T17:57:27.979Z,70178.72
2022-08-05T18:00:05.458Z,70157.25
2022-08-05T18:02:34.120Z,70128.19
2022-08-05T18:05:07.741Z,70100.59
2022-08-05T18:07:41.536Z,70147.06
2022-08-05T18:10:14.060Z,70111.19
2022-08-05T18:12:49.379Z,70081.16
2022-08-05T18:15:17.025Z,70064.94
2022-08-05T18:17:59.230Z,70047.16
2022-08-05T18:20:32.145Z,70023.03
2022-08-05T18:23:09.557Z,70009.63
2022-08-05T18:25:45.168Z,69951.78
2022-08-05T18:28:16.092Z,69942.16
2022-08-05T18:30:45.937Z,69916.00
2022-08-05T18:33:23.157Z,69888.78
2022-08-05T18:36:03.424Z,69895.75
2022-08-05T18:38:36.249Z,69755.59
2022-08-05T18:41:57.093Z,69663.38
2022-08-05T18:43:55.672Z,69556.00
2022-08-05T18:46:26.016Z,69504.00
2022-08-05T18:48:56.720Z,69372.84
2022-08-05T18:52:04.498Z,69309.31
2022-08-05T18:54:31.916Z,69079.81
2022-08-05T18:57:03.461Z,68862.09
2022-08-05T18:59:42.907Z,68525.63
2022-08-05T19:02:27.812Z,68227.66
2022-08-05T19:05:02.418Z,68002.50
2022-08-05T19:07:47.988Z,67571.22
2022-08-05T19:10:17.298Z,67339.00
2022-08-05T19:12:46.072Z,67031.41
2022-08-05T19:15:57.083Z,66800.38
2022-08-05T19:18:10.016Z,66461.00
2022-08-05T19:20:46.588Z,66209.13
2022-08-05T19:24:04.941Z,65700.97
2022-08-05T19:26:03.396Z,65464.44
2022-08-05T19:28:33.011Z,65200.47
2022-08-05T19:31:01.069Z,65131.53
2022-08-05T19:33:33.951Z,64926.38
2022-08-05T19:36:05.923Z,64722.84
2022-08-05T19:38:35.869Z,64384.88
2022-08-05T19:41:07.116Z,64213.31
2022-08-05T19:44:05.729Z,63962.50
2022-08-05T19:46:29.215Z,63798.53
2022-08-05T19:49:01.036Z,63538.53
2022-08-05T19:52:05.889Z,63216.81
2022-08-05T19:54:26.760Z,63204.69
2022-08-05T19:57:06.703Z,62977.09
2022-08-05T19:59:56.487Z,62835.13
2022-08-05T20:02:27.039Z,62789.63
2022-08-05T20:04:59.187Z,62688.41
2022-08-05T20:07:46.003Z,62727.06
2022-08-05T20:10:19.351Z,62779.22
2022-08-05T20:12:49.853Z,62794.38
2022-08-05T20:15:23.364Z,62883.13
2022-08-05T20:18:10.491Z,63014.16
2022-08-05T20:20:56.924Z,63184.78
2022-08-05T20:23:44.632Z,63224.28
2022-08-05T20:26:15.200Z,63401.69
2022-08-05T20:28:49.793Z,63447.56
2022-08-05T20:31:28.249Z,63448.53
2022-08-05T20:34:04.560Z,63646.25
2022-08-05T20:36:31.981Z,63753.28
2022-08-05T20:39:00.300Z,63890.28
2022-08-05T20:41:44.526Z,64083.09
2022-08-05T20:44:30.394Z,64126.03
2022-08-05T20:47:03.180Z,64241.56
2022-08-05T20:49:37.772Z,64082.47
2022-08-05T20:52:10.725Z,64395.19
2022-08-05T20:54:55.315Z,64511.84
2022-08-05T20:57:43.230Z,64609.00
2022-08-05T21:00:40.029Z,64709.91
2022-08-05T21:03:06.808Z,64826.41
2022-08-05T21:05:54.312Z,64858.06
2022-08-05T21:08:32.832Z,64882.75
2022-08-05T21:12:06.525Z,64842.50
2022-08-05T21:14:02.470Z,65045.19
2022-08-05T21:16:30.931Z,64996.38
2022-08-05T21:19:00.654Z,65046.16
2022-08-05T21:21:39.305Z,65054.69
2022-08-05T21:24:12.529Z,65081.41
2022-08-05T21:26:41.455Z,65099.06
2022-08-05T21:29:12.644Z,65018.22
2022-08-05T21:31:44.857Z,65034.91
2022-08-05T21:34:12.775Z,65096.53
2022-08-05T21:36:42.278Z,65122.19
2022-08-05T21:39:14.249Z,65109.38
2022-08-05T21:41:52.616Z,65181.78
2022-08-05T21:44:28.570Z,65247.59
2022-08-05T21:46:58.073Z,65228.31
2022-08-05T21:49:48.666Z,65196.22
2022-08-05T21:52:23.004Z,65248.72
2022-08-05T21:55:06.284Z,65370.34
2022-08-05T21:57:35.467Z,65390.72
2022-08-05T22:00:06.415Z,65451.81
2022-08-05T22:02:41.701Z,65605.81
2022-08-05T22:05:11.586Z,65634.13
2022-08-05T22:07:59.518Z,65624.44
2022-08-05T22:10:28.622Z,65646.88
2022-08-05T22:14:05.175Z,65669.16
2022-08-05T22:16:00.852Z,65687.28
2022-08-05T22:18:42.858Z,65702.81
2022-08-05T22:21:19.108Z,65692.66
2022-08-05T22:24:12.994Z,65681.22
2022-08-05T22:26:59.878Z,65779.09
2022-08-05T22:29:30.689Z,65703.09
2022-08-05T22:32:02.751Z,65671.66
2022-08-05T22:34:34.441Z,65817.22
2022-08-05T22:37:05.548Z,65884.66
2022-08-05T22:39:34.698Z,65899.56
2022-08-05T22:42:12.201Z,65977.06
2022-08-05T22:44:48.243Z,65934.22
2022-08-05T22:47:29.199Z,65957.22
2022-08-05T22:50:21.041Z,65986.91
2022-08-05T22:52:50.023Z,66024.38
2022-08-05T22:55:22.031Z,65976.41
2022-08-05T22:57:51.622Z,65833.66
2022-08-05T23:00:21.714Z,65822.88
2022-08-05T23:02:51.941Z,65878.25
2022-08-05T23:05:22.145Z,65817.13
2022-08-05T23:07:50.765Z,65774.66
2022-08-05T23:10:20.824Z,65690.63
2022-08-05T23:12:54.901Z,65612.34
2022-08-05T23:15:26.917Z,65524.72
2022-08-05T23:18:00.970Z,65353.09
2022-08-05T23:20:32.360Z,65224.28
2022-08-05T23:23:00.738Z,65105.19
2022-08-05T23:25:52.346Z,64669.94
2022-08-05T23:28:21.960Z,64388.56
2022-08-05T23:30:53.987Z,64192.16
2022-08-05T23:33:26.479Z,64067.81
2022-08-05T23:36:13.567Z,64051.28
2022-08-05T23:38:42.826Z,63856.50
2022-08-05T23:41:11.892Z,63770.06
2022-08-05T23:44:05.848Z,63797.88
2022-08-05T23:46:29.785Z,63918.03
2022-08-05T23:49:00.746Z,63852.91
2022-08-05T23:51:53.647Z,63955.88
2022-08-05T23:54:26.056Z,63956.44
2022-08-05T23:56:55.744Z,63876.91
